Time;durP1;ratioP1;P1;durP2;ratioP2;P2;SDS_P1;SDS_P2;PMS_P1;PMS_P2;Temp;Humidity;BMP_temperature;BMP_pressure;BME280_temperature;BME280_humidity;BME280_pressure;Samples;Min_cycle;Max_cycle;Signal;HPM_P1;HPM_P2
2023/10/25 00:02:56;;;;;;;5.13;3.33;;;;;;;;;;10275684;28;20034;-61
2023/10/25 00:07:56;;;;;;;7.97;3.92;;;;;;;;;;10260526;28;20015;-58
2023/10/25 00:12:57;;;;;;;3.95;3.00;;;;;;;;;;10283024;28;20065;-58
2023/10/25 00:17:57;;;;;;;4.57;3.00;;;;;;;;;;10292734;28;20030;-63
2023/10/25 00:22:58;;;;;;;5.43;3.05;;;;;;;;;;10283403;28;20053;-59
2023/10/25 00:27:59;;;;;;;4.30;3.03;;;;;;;;;;10285143;28;20042;-58
2023/10/25 00:33:00;;;;;;;5.95;2.45;;;;;;;;;;10287905;28;20227;-58
2023/10/25 00:38:00;;;;;;;4.07;2.30;;;;;;;;;;10292791;28;20031;-58
2023/10/25 00:43:20;;;;;;;3.58;2.10;;;;;;;;;;10288835;28;20042;-58
2023/10/25 00:48:20;;;;;;;11.63;2.05;;;;;;;;;;10290515;28;20055;-57
2023/10/25 00:53:23;;;;;;;4.65;2.45;;;;;;;;;;10271937;28;20920;-58
2023/10/25 00:58:24;;;;;;;4.45;2.03;;;;;;;;;;10266177;28;20045;-59
2023/10/25 01:03:25;;;;;;;3.08;1.90;;;;;;;;;;10272793;28;20091;-56
2023/10/25 01:08:26;;;;;;;1.90;1.65;;;;;;;;;;10293004;28;20125;-58
2023/10/25 01:13:26;;;;;;;1.90;1.70;;;;;;;;;;10292856;28;20034;-58
2023/10/25 01:18:27;;;;;;;1.70;1.60;;;;;;;;;;10284861;28;20077;-58
2023/10/25 01:23:27;;;;;;;3.50;1.75;;;;;;;;;;10286863;28;20031;-58
2023/10/25 01:28:28;;;;;;;3.83;1.60;;;;;;;;;;10290156;28;20042;-58
2023/10/25 01:33:29;;;;;;;5.15;1.90;;;;;;;;;;10290207;28;20038;-58
2023/10/25 01:38:29;;;;;;;2.30;1.50;;;;;;;;;;10292273;28;20117;-58
2023/10/25 01:43:30;;;;;;;2.65;1.48;;;;;;;;;;10290630;28;20289;-58
2023/10/25 01:48:30;;;;;;;1.55;1.45;;;;;;;;;;10279865;28;20038;-58
2023/10/25 01:53:31;;;;;;;4.75;1.60;;;;;;;;;;10291283;28;20495;-58
2023/10/25 01:58:32;;;;;;;1.48;1.38;;;;;;;;;;10288245;28;20094;-59
2023/10/25 02:03:32;;;;;;;1.83;1.50;;;;;;;;;;10280839;28;20089;-59
2023/10/25 02:08:33;;;;;;;2.45;1.38;;;;;;;;;;10292113;28;20019;-59
2023/10/25 02:13:34;;;;;;;2.08;1.27;;;;;;;;;;10291265;28;20034;-58
2023/10/25 02:18:34;;;;;;;1.75;1.50;;;;;;;;;;10288868;28;20031;-58
2023/10/25 02:23:35;;;;;;;2.33;1.67;;;;;;;;;;10288049;28;20034;-59
2023/10/25 02:28:35;;;;;;;2.55;1.42;;;;;;;;;;10294634;28;20026;-58
2023/10/25 02:33:36;;;;;;;2.67;1.67;;;;;;;;;;10287776;28;20043;-58
2023/10/25 02:38:37;;;;;;;3.10;1.50;;;;;;;;;;10287239;28;20018;-58
2023/10/25 02:43:37;;;;;;;1.85;1.40;;;;;;;;;;10288710;28;20034;-57
2023/10/25 02:48:41;;;;;;;1.40;1.20;;;;;;;;;;10289829;28;20062;-57
2023/10/25 02:53:41;;;;;;;2.22;1.60;;;;;;;;;;10288306;28;20069;-57
2023/10/25 02:58:42;;;;;;;1.60;1.40;;;;;;;;;;10287866;28;20514;-62
2023/10/25 03:03:43;;;;;;;1.83;1.52;;;;;;;;;;10285644;28;20030;-58
2023/10/25 03:08:43;;;;;;;3.88;1.60;;;;;;;;;;10289194;28;20027;-58
2023/10/25 03:13:44;;;;;;;3.78;1.48;;;;;;;;;;10288905;28;20376;-57
2023/10/25 03:18:45;;;;;;;1.73;1.52;;;;;;;;;;10283512;28;20022;-71
2023/10/25 03:23:45;;;;;;;2.70;1.35;;;;;;;;;;10274669;28;20027;-72
2023/10/25 03:28:46;;;;;;;1.45;1.35;;;;;;;;;;10289526;28;20054;-72
2023/10/25 03:33:47;;;;;;;2.75;1.20;;;;;;;;;;10277784;28;20034;-68
2023/10/25 03:38:47;;;;;;;1.20;1.10;;;;;;;;;;10286245;28;20446;-72
2023/10/25 03:43:48;;;;;;;1.80;1.45;;;;;;;;;;10288029;28;20031;-71
2023/10/25 03:48:48;;;;;;;1.10;1.08;;;;;;;;;;10285791;28;20054;-70
2023/10/25 03:53:49;;;;;;;2.67;1.30;;;;;;;;;;10287204;28;20046;-72
2023/10/25 03:58:50;;;;;;;1.40;1.30;;;;;;;;;;10288023;28;20505;-73
2023/10/25 04:03:50;;;;;;;1.75;1.40;;;;;;;;;;10286835;28;20649;-73
2023/10/25 04:08:51;;;;;;;2.92;1.48;;;;;;;;;;10288441;28;20089;-74
2023/10/25 04:13:52;;;;;;;2.03;1.17;;;;;;;;;;10285505;28;20050;-73
2023/10/25 04:18:52;;;;;;;3.92;1.40;;;;;;;;;;10280645;28;20101;-67
2023/10/25 04:23:53;;;;;;;1.30;1.20;;;;;;;;;;10287344;28;20043;-73
2023/10/25 04:28:54;;;;;;;1.48;1.38;;;;;;;;;;10280899;28;20038;-72
2023/10/25 04:33:55;;;;;;;1.40;1.20;;;;;;;;;;10285638;28;20435;-71
2023/10/25 04:38:55;;;;;;;1.75;1.30;;;;;;;;;;10275027;28;20042;-69
2023/10/25 04:43:56;;;;;;;0.98;0.98;;;;;;;;;;10284351;28;20411;-71
2023/10/25 04:48:56;;;;;;;1.35;1.25;;;;;;;;;;10285599;28;20594;-71
2023/10/25 04:53:57;;;;;;;1.63;1.23;;;;;;;;;;10279782;28;20079;-71
2023/10/25 04:58:57;;;;;;;1.23;1.15;;;;;;;;;;10284014;28;20026;-72
2023/10/25 05:03:58;;;;;;;2.38;1.48;;;;;;;;;;10283890;28;20026;-72
2023/10/25 05:08:59;;;;;;;1.40;1.13;;;;;;;;;;10283752;28;20031;-73
2023/10/25 05:14:00;;;;;;;1.60;1.50;;;;;;;;;;10284540;28;20122;-71
2023/10/25 05:19:01;;;;;;;1.30;1.20;;;;;;;;;;10286963;28;20034;-72
2023/10/25 05:24:03;;;;;;;1.30;1.20;;;;;;;;;;10290799;28;20138;-72
2023/10/25 05:29:04;;;;;;;4.32;1.80;;;;;;;;;;10272878;28;20027;-68
2023/10/25 05:34:05;;;;;;;1.30;1.20;;;;;;;;;;10286327;28;20046;-74
2023/10/25 05:39:06;;;;;;;1.30;1.20;;;;;;;;;;10271833;28;20031;-73
2023/10/25 05:44:13;;;;;;;3.42;1.20;;;;;;;;;;10290431;28;20045;-73
2023/10/25 05:49:14;;;;;;;3.85;1.15;;;;;;;;;;10283006;28;20022;-74
2023/10/25 05:54:15;;;;;;;1.30;1.20;;;;;;;;;;10283517;28;20082;-70
2023/10/25 05:59:16;;;;;;;1.20;1.10;;;;;;;;;;10286894;28;20062;-72
2023/10/25 06:04:19;;;;;;;1.30;1.20;;;;;;;;;;10275685;28;20391;-72
2023/10/25 06:09:20;;;;;;;1.63;1.20;;;;;;;;;;10286340;28;20615;-71
2023/10/25 06:14:21;;;;;;;1.27;1.20;;;;;;;;;;10288275;28;20266;-74
2023/10/25 06:19:22;;;;;;;2.78;1.27;;;;;;;;;;10284014;28;20034;-74
2023/10/25 06:24:22;;;;;;;3.22;1.15;;;;;;;;;;10288393;28;20030;-72
2023/10/25 06:29:24;;;;;;;2.15;1.25;;;;;;;;;;10271387;28;20046;-72
2023/10/25 06:34:24;;;;;;;1.40;1.30;;;;;;;;;;10280380;28;20434;-70
2023/10/25 06:39:25;;;;;;;1.52;1.20;;;;;;;;;;10282538;28;20035;-71
2023/10/25 06:44:26;;;;;;;1.90;1.10;;;;;;;;;;10287748;28;20037;-74
2023/10/25 06:49:27;;;;;;;2.17;1.25;;;;;;;;;;10285597;28;20034;-72
2023/10/25 06:54:28;;;;;;;2.22;1.55;;;;;;;;;;10264939;28;20082;-68
2023/10/25 06:59:29;;;;;;;5.38;2.15;;;;;;;;;;10272821;28;20037;-70
2023/10/25 07:04:32;;;;;;;8.43;1.80;;;;;;;;;;10254275;28;20090;-69
2023/10/25 07:09:33;;;;;;;2.90;2.20;;;;;;;;;;10257969;28;20023;-70
2023/10/25 07:14:34;;;;;;;5.13;2.30;;;;;;;;;;10262329;28;20038;-70
2023/10/25 07:19:34;;;;;;;6.47;2.17;;;;;;;;;;10257178;28;20039;-70
2023/10/25 07:24:35;;;;;;;4.35;2.13;;;;;;;;;;10263601;28;20038;-71
2023/10/25 07:29:38;;;;;;;8.50;2.03;;;;;;;;;;10260120;28;20031;-68
2023/10/25 07:34:39;;;;;;;4.70;2.17;;;;;;;;;;10261539;28;20119;-71
2023/10/25 07:39:40;;;;;;;7.03;2.30;;;;;;;;;;10261992;28;20043;-68
2023/10/25 07:44:41;;;;;;;5.78;3.00;;;;;;;;;;10275324;28;20045;-64
2023/10/25 07:49:45;;;;;;;7.20;2.60;;;;;;;;;;10278914;28;20049;-63
2023/10/25 07:54:46;;;;;;;2.95;2.25;;;;;;;;;;10285775;28;20066;-63
2023/10/25 07:59:47;;;;;;;7.75;2.65;;;;;;;;;;10285142;28;20030;-62
2023/10/25 08:04:47;;;;;;;5.32;2.60;;;;;;;;;;10268427;28;20395;-64
2023/10/25 08:09:48;;;;;;;7.70;4.22;;;;;;;;;;10260589;28;20109;-64
2023/10/25 08:14:49;;;;;;;4.90;3.67;;;;;;;;;;10255984;28;20023;-62
2023/10/25 08:19:50;;;;;;;4.97;3.10;;;;;;;;;;10257194;28;20054;-64
2023/10/25 08:24:51;;;;;;;5.47;3.17;;;;;;;;;;10257259;28;20067;-67
2023/10/25 08:29:52;;;;;;;8.25;3.50;;;;;;;;;;10275966;28;20039;-67
2023/10/25 08:34:52;;;;;;;4.97;3.47;;;;;;;;;;10264079;28;20577;-67
2023/10/25 08:39:53;;;;;;;4.93;3.17;;;;;;;;;;10283947;28;20027;-68
2023/10/25 08:44:54;;;;;;;7.00;2.67;;;;;;;;;;10281583;28;20111;-69
2023/10/25 08:49:55;;;;;;;6.70;2.83;;;;;;;;;;10265456;28;20035;-65
2023/10/25 08:54:56;;;;;;;6.47;2.92;;;;;;;;;;10272331;28;20561;-66
2023/10/25 08:59:56;;;;;;;14.00;2.65;;;;;;;;;;10282690;28;20763;-64
2023/10/25 09:04:59;;;;;;;8.73;2.90;;;;;;;;;;10286049;28;20018;-66
2023/10/25 09:10:00;;;;;;;6.90;3.20;;;;;;;;;;10290738;28;20576;-65
2023/10/25 09:15:01;;;;;;;7.55;3.47;;;;;;;;;;10292556;28;20038;-65
2023/10/25 09:20:06;;;;;;;4.97;2.85;;;;;;;;;;10292285;28;20035;-65
2023/10/25 09:25:07;;;;;;;5.07;3.00;;;;;;;;;;10291170;28;20042;-66
2023/10/25 09:30:15;;;;;;;4.47;3.40;;;;;;;;;;10291292;28;20050;-67
2023/10/25 09:35:16;;;;;;;4.18;3.00;;;;;;;;;;10293300;28;20122;-66
2023/10/25 09:40:17;;;;;;;5.55;2.70;;;;;;;;;;10286220;28;20033;-65
2023/10/25 09:45:26;;;;;;;3.63;2.92;;;;;;;;;;10286874;28;20035;-64
2023/10/25 09:50:35;;;;;;;4.28;2.95;;;;;;;;;;10292421;28;20061;-64
2023/10/25 09:55:41;;;;;;;6.63;2.90;;;;;;;;;;10271669;28;20098;-66
2023/10/25 10:00:41;;;;;;;8.68;2.88;;;;;;;;;;10290804;28;20038;-67
2023/10/25 10:06:23;;;;;;;3.42;3.00;;;;;;;;;;10289943;28;20434;-65
2023/10/25 10:11:31;;;;;;;14.23;8.00;;;;;;;;;;10273734;28;20029;-63
2023/10/25 10:16:32;;;;;;;19.80;12.52;;;;;;;;;;10269397;28;20573;-62
2023/10/25 10:22:05;;;;;;;27.55;15.88;;;;;;;;;;10281491;28;20035;-67
2023/10/25 10:27:06;;;;;;;28.70;17.23;;;;;;;;;;10286425;28;20027;-65
2023/10/25 10:32:09;;;;;;;30.10;19.20;;;;;;;;;;10282715;28;20058;-63
2023/10/25 10:37:16;;;;;;;28.17;17.60;;;;;;;;;;10293785;28;20030;-63
2023/10/25 10:42:20;;;;;;;27.03;16.03;;;;;;;;;;10280740;28;20045;-64
2023/10/25 10:47:41;;;;;;;24.10;15.85;;;;;;;;;;10285662;28;20031;-63
2023/10/25 10:52:44;;;;;;;19.85;14.07;;;;;;;;;;10282506;28;20128;-63
2023/10/25 10:57:45;;;;;;;23.42;13.93;;;;;;;;;;10281507;28;20039;-61
2023/10/25 11:02:53;;;;;;;20.95;13.77;;;;;;;;;;10290344;28;20062;-65
2023/10/25 11:07:54;;;;;;;19.87;13.47;;;;;;;;;;10282609;28;20531;-62
2023/10/25 11:12:58;;;;;;;21.55;12.32;;;;;;;;;;10284419;28;20062;-66
2023/10/25 11:18:01;;;;;;;20.42;13.68;;;;;;;;;;10270904;28;20105;-61
2023/10/25 11:23:04;;;;;;;17.45;11.32;;;;;;;;;;10284813;28;20228;-63
2023/10/25 11:28:04;;;;;;;16.00;11.48;;;;;;;;;;10284081;28;20034;-62
2023/10/25 11:33:05;;;;;;;15.52;10.98;;;;;;;;;;10286684;28;20034;-63
2023/10/25 11:38:06;;;;;;;14.25;10.43;;;;;;;;;;10282250;28;20090;-60
2023/10/25 11:43:07;;;;;;;16.80;10.25;;;;;;;;;;10280657;28;20030;-63
2023/10/25 11:48:09;;;;;;;14.52;10.25;;;;;;;;;;10278795;28;20035;-65
2023/10/25 11:53:13;;;;;;;18.83;9.98;;;;;;;;;;10277784;28;20058;-63
2023/10/25 11:58:15;;;;;;;11.90;8.15;;;;;;;;;;10282872;28;20549;-65
2023/10/25 12:03:15;;;;;;;12.23;9.07;;;;;;;;;;10284835;28;20113;-61
2023/10/25 12:08:16;;;;;;;14.13;9.27;;;;;;;;;;10279456;28;20030;-63
2023/10/25 12:13:18;;;;;;;12.98;8.77;;;;;;;;;;10284034;28;20513;-64
2023/10/25 12:18:18;;;;;;;11.80;7.50;;;;;;;;;;10284682;28;20059;-63
2023/10/25 12:23:19;;;;;;;16.98;7.65;;;;;;;;;;10280718;28;20031;-63
2023/10/25 12:28:19;;;;;;;10.93;8.00;;;;;;;;;;10270689;28;20019;-61
2023/10/25 12:33:20;;;;;;;10.45;6.90;;;;;;;;;;10257447;28;20592;-60
2023/10/25 12:38:21;;;;;;;8.68;6.35;;;;;;;;;;10256034;28;20041;-59
2023/10/25 12:43:22;;;;;;;10.82;7.15;;;;;;;;;;10259802;28;20034;-64
2023/10/25 12:48:22;;;;;;;12.85;7.43;;;;;;;;;;10274644;28;20097;-64
2023/10/25 12:53:23;;;;;;;10.80;6.65;;;;;;;;;;10276382;28;20066;-69
2023/10/25 12:58:23;;;;;;;12.68;7.10;;;;;;;;;;10279641;28;20029;-65
2023/10/25 13:03:24;;;;;;;17.38;7.30;;;;;;;;;;10279809;28;20490;-66
2023/10/25 13:08:25;;;;;;;13.15;7.15;;;;;;;;;;10283177;28;20489;-66
2023/10/25 13:13:26;;;;;;;13.88;6.75;;;;;;;;;;10278413;28;20635;-61
2023/10/25 13:18:27;;;;;;;10.13;6.28;;;;;;;;;;10279479;28;20041;-60
2023/10/25 13:23:29;;;;;;;9.80;6.32;;;;;;;;;;10280240;28;20031;-62
2023/10/25 13:28:29;;;;;;;12.93;5.43;;;;;;;;;;10282410;28;20521;-63
2023/10/25 13:33:30;;;;;;;8.43;5.78;;;;;;;;;;10256669;28;20038;-60
2023/10/25 13:38:32;;;;;;;11.80;4.95;;;;;;;;;;10283848;28;20038;-65
2023/10/25 13:43:33;;;;;;;7.32;5.18;;;;;;;;;;10292483;28;20027;-63
2023/10/25 13:48:34;;;;;;;13.85;5.53;;;;;;;;;;10287238;28;20430;-63
2023/10/25 13:53:38;;;;;;;9.52;5.88;;;;;;;;;;10293218;28;20406;-64
2023/10/25 13:58:39;;;;;;;7.88;5.38;;;;;;;;;;10292114;28;20027;-62
2023/10/25 14:03:40;;;;;;;8.00;4.60;;;;;;;;;;10291753;28;20360;-68
2023/10/25 14:08:41;;;;;;;8.05;5.10;;;;;;;;;;10292375;28;20035;-65
2023/10/25 14:13:41;;;;;;;8.32;4.30;;;;;;;;;;10291183;28;20038;-65
2023/10/25 14:18:42;;;;;;;7.90;4.55;;;;;;;;;;10289729;28;20502;-69
2023/10/25 14:23:46;;;;;;;8.90;4.30;;;;;;;;;;10291322;28;20027;-64
2023/10/25 14:28:46;;;;;;;7.53;4.65;;;;;;;;;;10287287;28;20027;-68
2023/10/25 14:33:47;;;;;;;6.63;4.47;;;;;;;;;;10295680;28;20390;-60
2023/10/25 14:38:49;;;;;;;6.57;4.20;;;;;;;;;;10284234;28;20429;-62
2023/10/25 14:43:50;;;;;;;8.90;3.92;;;;;;;;;;10284398;28;20027;-64
2023/10/25 14:48:55;;;;;;;7.57;4.28;;;;;;;;;;10281504;28;20518;-66
2023/10/25 14:53:56;;;;;;;6.72;4.10;;;;;;;;;;10279279;28;20050;-66
2023/10/25 14:58:56;;;;;;;6.85;3.90;;;;;;;;;;10264411;28;20061;-63
2023/10/25 15:03:57;;;;;;;8.63;4.25;;;;;;;;;;10258476;28;20031;-70
2023/10/25 15:08:58;;;;;;;7.15;4.10;;;;;;;;;;10260922;28;20031;-65
2023/10/25 15:13:59;;;;;;;6.13;3.95;;;;;;;;;;10253552;28;20078;-70
2023/10/25 15:18:59;;;;;;;5.22;3.67;;;;;;;;;;10254226;28;20031;-59
2023/10/25 15:24:00;;;;;;;5.68;3.90;;;;;;;;;;10264044;28;20047;-62
2023/10/25 15:29:01;;;;;;;4.43;3.60;;;;;;;;;;10255003;28;20038;-61
2023/10/25 15:34:01;;;;;;;6.97;3.60;;;;;;;;;;10261997;28;20026;-59
2023/10/25 15:39:02;;;;;;;4.65;3.80;;;;;;;;;;10258367;28;20039;-58
2023/10/25 15:44:05;;;;;;;8.48;3.47;;;;;;;;;;10259598;28;20030;-60
2023/10/25 15:49:05;;;;;;;9.27;3.65;;;;;;;;;;10256188;28;20483;-58
2023/10/25 15:54:06;;;;;;;6.05;4.07;;;;;;;;;;10261890;28;20054;-60
2023/10/25 15:59:07;;;;;;;4.57;3.40;;;;;;;;;;10283477;28;20166;-58
2023/10/25 16:04:08;;;;;;;4.85;3.67;;;;;;;;;;10277806;28;20049;-60
2023/10/25 16:09:08;;;;;;;10.40;3.97;;;;;;;;;;10283461;28;20062;-58
2023/10/25 16:14:09;;;;;;;6.05;4.22;;;;;;;;;;10280900;28;20037;-60
2023/10/25 16:19:10;;;;;;;6.20;3.50;;;;;;;;;;10283006;28;20037;-60
2023/10/25 16:24:11;;;;;;;6.18;3.65;;;;;;;;;;10282260;28;20034;-60
2023/10/25 16:29:12;;;;;;;7.80;3.88;;;;;;;;;;10282469;28;20034;-59
2023/10/25 16:34:15;;;;;;;5.45;3.97;;;;;;;;;;10285570;28;20070;-63
2023/10/25 16:39:16;;;;;;;5.72;3.60;;;;;;;;;;10285032;28;20086;-68
2023/10/25 16:44:16;;;;;;;5.90;4.50;;;;;;;;;;10277241;28;20395;-64
2023/10/25 16:49:17;;;;;;;7.70;5.05;;;;;;;;;;10279725;28;20031;-64
2023/10/25 16:54:17;;;;;;;8.05;5.50;;;;;;;;;;10278963;28;20050;-64
2023/10/25 16:59:18;;;;;;;6.25;5.03;;;;;;;;;;10280963;28;20182;-64
2023/10/25 17:04:19;;;;;;;9.90;5.70;;;;;;;;;;10279899;28;20031;-64
2023/10/25 17:09:22;;;;;;;9.25;6.10;;;;;;;;;;10279403;28;20027;-64
2023/10/25 17:14:23;;;;;;;9.65;5.85;;;;;;;;;;10287490;28;20030;-65
2023/10/25 17:19:24;;;;;;;10.60;6.72;;;;;;;;;;10288517;28;20047;-65
2023/10/25 17:24:25;;;;;;;11.27;7.05;;;;;;;;;;10291669;28;20034;-64
2023/10/25 17:29:26;;;;;;;10.82;6.22;;;;;;;;;;10289670;28;20094;-64
2023/10/25 17:34:26;;;;;;;10.52;6.40;;;;;;;;;;10291045;28;20037;-65
2023/10/25 17:39:27;;;;;;;13.68;6.38;;;;;;;;;;10289313;28;20027;-65
2023/10/25 17:44:28;;;;;;;11.88;7.57;;;;;;;;;;10291234;28;20034;-65
2023/10/25 17:49:28;;;;;;;12.45;6.65;;;;;;;;;;10282367;28;20041;-65
2023/10/25 17:54:29;;;;;;;10.52;6.90;;;;;;;;;;10295172;28;20063;-65
2023/10/25 17:59:33;;;;;;;11.23;5.60;;;;;;;;;;10284305;28;20523;-65
2023/10/25 18:04:33;;;;;;;8.10;5.65;;;;;;;;;;10281507;28;20023;-65
2023/10/25 18:09:35;;;;;;;9.25;5.68;;;;;;;;;;10280027;28;20038;-65
2023/10/25 18:14:37;;;;;;;19.98;6.50;;;;;;;;;;10282733;28;20578;-65
2023/10/25 18:19:37;;;;;;;9.18;5.68;;;;;;;;;;10281680;28;20055;-63
2023/10/25 18:24:39;;;;;;;11.10;6.93;;;;;;;;;;10277953;28;20031;-64
2023/10/25 18:29:41;;;;;;;12.30;7.35;;;;;;;;;;10266976;28;20446;-64
2023/10/25 18:34:41;;;;;;;10.48;7.00;;;;;;;;;;10268114;28;20034;-63
2023/10/25 18:39:42;;;;;;;12.63;8.07;;;;;;;;;;10282291;28;20026;-63
2023/10/25 18:44:42;;;;;;;11.60;7.00;;;;;;;;;;10289320;28;20046;-63
2023/10/25 18:49:45;;;;;;;16.90;7.65;;;;;;;;;;10287162;28;20483;-63
2023/10/25 18:54:45;;;;;;;15.25;7.95;;;;;;;;;;10283988;28;20030;-64
2023/10/25 18:59:54;;;;;;;16.17;6.97;;;;;;;;;;10279456;28;20027;-59
2023/10/25 19:04:57;;;;;;;13.40;6.88;;;;;;;;;;10287049;28;20387;-59
2023/10/25 19:10:18;;;;;;;12.30;5.95;;;;;;;;;;10284490;28;20038;-64
2023/10/25 19:15:19;;;;;;;12.18;5.85;;;;;;;;;;10157173;29;20054;-59
2023/10/25 19:20:19;;;;;;;14.90;6.40;;;;;;;;;;10154395;29;20051;-58
2023/10/25 19:25:20;;;;;;;16.88;6.50;;;;;;;;;;10135833;29;20045;-58
2023/10/25 19:30:20;;;;;;;16.95;6.65;;;;;;;;;;10153326;29;20051;-58
2023/10/25 19:35:21;;;;;;;11.98;5.55;;;;;;;;;;10157324;29;20095;-66
2023/10/25 19:40:22;;;;;;;17.58;6.35;;;;;;;;;;10160596;29;20544;-67
2023/10/25 19:45:22;;;;;;;13.20;5.88;;;;;;;;;;10145916;29;20134;-65
2023/10/25 19:50:23;;;;;;;14.32;5.70;;;;;;;;;;10191040;28;20069;-66
2023/10/25 19:55:23;;;;;;;15.30;5.40;;;;;;;;;;10266337;28;20046;-65
2023/10/25 20:00:24;;;;;;;33.85;6.22;;;;;;;;;;10267575;28;20439;-67
2023/10/25 20:05:25;;;;;;;15.90;6.68;;;;;;;;;;10267606;28;20074;-66
2023/10/25 20:10:25;;;;;;;18.00;6.55;;;;;;;;;;10263052;28;20026;-67
2023/10/25 20:15:26;;;;;;;11.98;6.00;;;;;;;;;;10272588;28;20035;-67
2023/10/25 20:20:27;;;;;;;12.43;6.78;;;;;;;;;;10269300;28;20081;-67
2023/10/25 20:25:28;;;;;;;12.85;6.43;;;;;;;;;;10275009;28;20054;-67
2023/10/25 20:30:28;;;;;;;13.57;6.93;;;;;;;;;;10279710;28;20035;-64
2023/10/25 20:35:29;;;;;;;14.88;6.28;;;;;;;;;;10285311;28;20454;-58
2023/10/25 20:40:30;;;;;;;9.63;6.22;;;;;;;;;;10274280;28;20043;-59
2023/10/25 20:45:30;;;;;;;12.48;6.70;;;;;;;;;;10268609;28;20058;-59
2023/10/25 20:50:31;;;;;;;14.25;6.72;;;;;;;;;;10273611;28;20042;-51
2023/10/25 20:55:31;;;;;;;12.57;8.30;;;;;;;;;;10284328;28;20471;-59
2023/10/25 21:00:32;;;;;;;17.75;8.70;;;;;;;;;;10282951;28;20519;-58
2023/10/25 21:05:33;;;;;;;18.20;8.25;;;;;;;;;;10288915;28;20042;-58
2023/10/25 21:10:34;;;;;;;17.67;8.45;;;;;;;;;;10286382;28;20057;-59
2023/10/25 21:15:35;;;;;;;11.90;5.90;;;;;;;;;;10279318;28;20546;-58
2023/10/25 21:20:42;;;;;;;10.20;5.60;;;;;;;;;;10277279;28;20033;-58
2023/10/25 21:25:43;;;;;;;9.80;5.23;;;;;;;;;;10280066;28;20508;-58
2023/10/25 21:30:44;;;;;;;13.38;5.68;;;;;;;;;;10282142;28;20034;-60
2023/10/25 21:35:44;;;;;;;16.00;5.95;;;;;;;;;;10278339;28;20030;-59
2023/10/25 21:40:45;;;;;;;13.73;5.72;;;;;;;;;;10279134;28;20034;-58
2023/10/25 21:45:53;;;;;;;14.48;5.25;;;;;;;;;;10267199;28;20023;-58
2023/10/25 21:51:04;;;;;;;10.00;5.13;;;;;;;;;;10269327;28;20110;-58
2023/10/25 21:56:06;;;;;;;12.77;5.03;;;;;;;;;;10267450;28;20031;-58
2023/10/25 22:01:07;;;;;;;11.55;5.57;;;;;;;;;;10272951;28;20026;-58
2023/10/25 22:06:08;;;;;;;6.97;4.35;;;;;;;;;;10277762;28;20050;-58
2023/10/25 22:11:08;;;;;;;10.77;4.82;;;;;;;;;;10287016;28;20034;-58
2023/10/25 22:16:09;;;;;;;8.25;5.35;;;;;;;;;;10278115;28;20498;-59
2023/10/25 22:21:09;;;;;;;10.75;4.85;;;;;;;;;;10257418;28;20043;-61
2023/10/25 22:26:10;;;;;;;19.08;5.03;;;;;;;;;;10260035;28;20045;-59
2023/10/25 22:31:11;;;;;;;6.22;4.55;;;;;;;;;;10258199;28;20038;-56
2023/10/25 22:36:11;;;;;;;9.43;4.68;;;;;;;;;;10288725;28;20053;-56
2023/10/25 22:41:18;;;;;;;11.30;5.25;;;;;;;;;;10288537;28;20751;-58
2023/10/25 22:46:19;;;;;;;7.75;4.20;;;;;;;;;;10288837;28;20023;-56
2023/10/25 22:51:19;;;;;;;11.52;4.65;;;;;;;;;;10286609;28;20054;-57
2023/10/25 22:56:20;;;;;;;9.35;5.10;;;;;;;;;;10285657;28;20045;-57
2023/10/25 23:01:20;;;;;;;14.07;4.55;;;;;;;;;;10286616;28;20042;-58
2023/10/25 23:06:21;;;;;;;6.80;4.07;;;;;;;;;;10287388;28;20070;-58
2023/10/25 23:11:22;;;;;;;8.07;4.20;;;;;;;;;;10284321;28;20061;-58
2023/10/25 23:16:23;;;;;;;9.15;4.40;;;;;;;;;;10287761;28;20026;-59
2023/10/25 23:21:24;;;;;;;8.25;4.43;;;;;;;;;;10266486;28;20053;-58
2023/10/25 23:26:25;;;;;;;5.78;4.55;;;;;;;;;;10286689;28;20041;-60
2023/10/25 23:31:25;;;;;;;6.20;4.38;;;;;;;;;;10285768;28;20030;-59
2023/10/25 23:36:26;;;;;;;5.55;3.83;;;;;;;;;;10293063;28;20310;-59
2023/10/25 23:41:26;;;;;;;5.95;4.03;;;;;;;;;;10287263;28;20051;-59
2023/10/25 23:46:27;;;;;;;9.77;4.18;;;;;;;;;;10288705;28;20031;-59
2023/10/25 23:51:28;;;;;;;7.45;3.90;;;;;;;;;;10282248;28;20034;-59
2023/10/25 23:56:28;;;;;;;5.18;3.95;;;;;;;;;;10286805;28;20077;-59
